sensor_id;sensor_type;location;lat;lon;timestamp;temperature;humidity
9943;DHT22;5010;45.080;7.634;2023-01-28T11:36:13;16.50;99.90
9943;DHT22;5010;45.080;7.634;2023-01-28T11:38:48;17.90;1.00
9943;DHT22;5010;45.080;7.634;2023-01-28T11:41:25;18.10;1.00
9943;DHT22;5010;45.080;7.634;2023-01-28T11:43:53;18.30;99.90
9943;DHT22;5010;45.080;7.634;2023-01-28T11:46:35;18.60;1.00
9943;DHT22;5010;45.080;7.634;2023-01-28T11:49:09;18.80;1.00
9943;DHT22;5010;45.080;7.634;2023-01-28T11:51:47;18.90;1.00
9943;DHT22;5010;45.080;7.634;2023-01-28T11:54:28;19.10;1.00
9943;DHT22;5010;45.080;7.634;2023-01-28T11:57:16;19.20;99.90
9943;DHT22;5010;45.080;7.634;2023-01-28T11:59:56;19.30;99.90
9943;DHT22;5010;45.080;7.634;2023-01-28T12:02:41;19.50;99.90
9943;DHT22;5010;45.080;7.634;2023-01-28T12:05:26;19.50;4.90
9943;DHT22;5010;45.080;7.634;2023-01-28T12:08:05;19.60;1.00
9943;DHT22;5010;45.080;7.634;2023-01-28T12:10:37;19.70;1.00
9943;DHT22;5010;45.080;7.634;2023-01-28T12:13:15;19.70;1.00
9943;DHT22;5010;45.080;7.634;2023-01-28T12:16:12;19.80;1.00
9943;DHT22;5010;45.080;7.634;2023-01-28T12:19:06;19.80;1.00
9943;DHT22;5010;45.080;7.634;2023-01-28T12:21:44;19.90;1.00
9943;DHT22;5010;45.080;7.634;2023-01-28T12:24:25;20.00;1.00
9943;DHT22;5010;45.080;7.634;2023-01-28T12:27:01;20.00;1.00
9943;DHT22;5010;45.080;7.634;2023-01-28T12:29:34;20.00;1.00
9943;DHT22;5010;45.080;7.634;2023-01-28T12:32:35;20.00;1.00
9943;DHT22;5010;45.080;7.634;2023-01-28T12:35:20;20.10;1.00
9943;DHT22;5010;45.080;7.634;2023-01-28T12:37:58;20.10;1.00
9943;DHT22;5010;45.080;7.634;2023-01-28T12:43:32;20.10;1.00
9943;DHT22;5010;45.080;7.634;2023-01-28T12:46:10;20.10;1.00
9943;DHT22;5010;45.080;7.634;2023-01-28T12:48:40;20.10;1.00
9943;DHT22;5010;45.080;7.634;2023-01-28T12:51:12;20.00;1.00
9943;DHT22;5010;45.080;7.634;2023-01-28T12:53:42;20.00;99.90
9943;DHT22;5010;45.080;7.634;2023-01-28T12:56:15;20.00;99.90
9943;DHT22;5010;45.080;7.634;2023-01-28T12:58:47;20.00;99.90
9943;DHT22;5010;45.080;7.634;2023-01-28T13:01:20;20.00;99.90
9943;DHT22;5010;45.080;7.634;2023-01-28T13:03:52;19.90;99.90
9943;DHT22;5010;45.080;7.634;2023-01-28T13:06:25;19.90;99.90
9943;DHT22;5010;45.080;7.634;2023-01-28T13:08:58;19.80;99.90
9943;DHT22;5010;45.080;7.634;2023-01-28T13:11:32;19.80;99.90
9943;DHT22;5010;45.080;7.634;2023-01-28T13:14:01;19.80;99.90
9943;DHT22;5010;45.080;7.634;2023-01-28T13:16:28;19.80;99.90
9943;DHT22;5010;45.080;7.634;2023-01-28T13:19:04;19.80;99.90
9943;DHT22;5010;45.080;7.634;2023-01-28T13:21:33;19.80;99.90
9943;DHT22;5010;45.080;7.634;2023-01-28T13:24:16;19.80;99.90
9943;DHT22;5010;45.080;7.634;2023-01-28T13:26:50;19.70;99.90
9943;DHT22;5010;45.080;7.634;2023-01-28T13:29:21;19.70;99.90
9943;DHT22;5010;45.080;7.634;2023-01-28T13:31:54;19.70;99.90
9943;DHT22;5010;45.080;7.634;2023-01-28T13:34:28;19.70;99.90
9943;DHT22;5010;45.080;7.634;2023-01-28T13:36:59;19.70;99.90
9943;DHT22;5010;45.080;7.634;2023-01-28T13:39:28;19.70;99.90
9943;DHT22;5010;45.080;7.634;2023-01-28T13:42:10;19.70;99.90
9943;DHT22;5010;45.080;7.634;2023-01-28T13:44:45;19.60;99.90
9943;DHT22;5010;45.080;7.634;2023-01-28T13:47:17;19.60;99.90
9943;DHT22;5010;45.080;7.634;2023-01-28T13:49:47;19.60;99.90
9943;DHT22;5010;45.080;7.634;2023-01-28T13:52:18;19.60;99.90
9943;DHT22;5010;45.080;7.634;2023-01-28T13:54:50;19.60;99.90
9943;DHT22;5010;45.080;7.634;2023-01-28T13:58:01;19.60;99.90
9943;DHT22;5010;45.080;7.634;2023-01-28T14:00:44;19.60;99.90
9943;DHT22;5010;45.080;7.634;2023-01-28T14:03:37;19.60;99.90
9943;DHT22;5010;45.080;7.634;2023-01-28T14:06:25;19.60;99.90
9943;DHT22;5010;45.080;7.634;2023-01-28T14:09:16;19.50;99.90
9943;DHT22;5010;45.080;7.634;2023-01-28T14:12:04;19.50;99.90
9943;DHT22;5010;45.080;7.634;2023-01-28T14:17:46;19.50;99.90
9943;DHT22;5010;45.080;7.634;2023-01-28T14:20:17;19.50;99.90
9943;DHT22;5010;45.080;7.634;2023-01-28T14:22:45;19.50;99.90
9943;DHT22;5010;45.080;7.634;2023-01-28T14:25:15;19.50;99.90
9943;DHT22;5010;45.080;7.634;2023-01-28T14:27:47;19.50;99.90
9943;DHT22;5010;45.080;7.634;2023-01-28T14:30:21;19.50;99.90
9943;DHT22;5010;45.080;7.634;2023-01-28T14:32:52;19.50;99.90
9943;DHT22;5010;45.080;7.634;2023-01-28T14:35:27;19.50;99.90
9943;DHT22;5010;45.080;7.634;2023-01-28T14:37:54;19.50;99.90
9943;DHT22;5010;45.080;7.634;2023-01-28T14:40:22;19.50;99.90
9943;DHT22;5010;45.080;7.634;2023-01-28T14:42:52;19.50;99.90
9943;DHT22;5010;45.080;7.634;2023-01-28T14:45:37;19.50;99.90
9943;DHT22;5010;45.080;7.634;2023-01-28T14:48:20;19.40;99.90
9943;DHT22;5010;45.080;7.634;2023-01-28T14:51:00;19.40;99.90
9943;DHT22;5010;45.080;7.634;2023-01-28T14:53:43;19.40;99.90
9943;DHT22;5010;45.080;7.634;2023-01-28T14:56:19;19.40;99.90
9943;DHT22;5010;45.080;7.634;2023-01-28T14:58:52;19.40;99.90
9943;DHT22;5010;45.080;7.634;2023-01-28T15:01:21;19.40;99.90
9943;DHT22;5010;45.080;7.634;2023-01-28T15:03:50;19.40;99.90
9943;DHT22;5010;45.080;7.634;2023-01-28T15:06:19;19.40;99.90
9943;DHT22;5010;45.080;7.634;2023-01-28T15:08:48;19.30;99.90
9943;DHT22;5010;45.080;7.634;2023-01-28T15:11:18;19.30;99.90
9943;DHT22;5010;45.080;7.634;2023-01-28T15:13:48;19.30;99.90
9943;DHT22;5010;45.080;7.634;2023-01-28T15:16:19;19.30;99.90
9943;DHT22;5010;45.080;7.634;2023-01-28T15:18:47;19.30;99.90
9943;DHT22;5010;45.080;7.634;2023-01-28T15:21:20;19.30;99.90
9943;DHT22;5010;45.080;7.634;2023-01-28T15:23:49;19.20;99.90
9943;DHT22;5010;45.080;7.634;2023-01-28T15:26:20;19.20;99.90
9943;DHT22;5010;45.080;7.634;2023-01-28T15:28:48;19.20;99.90
9943;DHT22;5010;45.080;7.634;2023-01-28T15:31:19;19.20;99.90
9943;DHT22;5010;45.080;7.634;2023-01-28T15:33:55;19.20;99.90
9943;DHT22;5010;45.080;7.634;2023-01-28T15:36:24;19.10;99.90
9943;DHT22;5010;45.080;7.634;2023-01-28T15:38:52;19.20;99.90
9943;DHT22;5010;45.080;7.634;2023-01-28T15:41:21;19.10;99.90
9943;DHT22;5010;45.080;7.634;2023-01-28T15:43:51;19.10;99.90
9943;DHT22;5010;45.080;7.634;2023-01-28T15:46:18;19.10;99.90
9943;DHT22;5010;45.080;7.634;2023-01-28T15:48:51;19.10;99.90
9943;DHT22;5010;45.080;7.634;2023-01-28T15:51:24;19.10;99.90
9943;DHT22;5010;45.080;7.634;2023-01-28T15:53:54;19.00;99.90
9943;DHT22;5010;45.080;7.634;2023-01-28T15:56:24;19.00;99.90
9943;DHT22;5010;45.080;7.634;2023-01-28T15:58:52;19.00;99.90
9943;DHT22;5010;45.080;7.634;2023-01-28T16:01:20;19.00;99.90
9943;DHT22;5010;45.080;7.634;2023-01-28T16:03:59;19.00;99.90
9943;DHT22;5010;45.080;7.634;2023-01-28T16:06:31;19.00;99.90
9943;DHT22;5010;45.080;7.634;2023-01-28T16:09:01;18.90;99.90
9943;DHT22;5010;45.080;7.634;2023-01-28T16:11:31;18.90;99.90
9943;DHT22;5010;45.080;7.634;2023-01-28T16:13:58;18.90;99.90
9943;DHT22;5010;45.080;7.634;2023-01-28T16:16:27;18.90;99.90
9943;DHT22;5010;45.080;7.634;2023-01-28T16:18:55;18.90;99.90
9943;DHT22;5010;45.080;7.634;2023-01-28T16:21:23;18.90;99.90
9943;DHT22;5010;45.080;7.634;2023-01-28T16:23:59;18.80;99.90
9943;DHT22;5010;45.080;7.634;2023-01-28T16:26:27;18.80;99.90
9943;DHT22;5010;45.080;7.634;2023-01-28T16:28:54;18.80;99.90
9943;DHT22;5010;45.080;7.634;2023-01-28T16:31:21;18.80;99.90
9943;DHT22;5010;45.080;7.634;2023-01-28T16:33:48;18.80;99.90
9943;DHT22;5010;45.080;7.634;2023-01-28T16:36:16;18.80;99.90
9943;DHT22;5010;45.080;7.634;2023-01-28T16:38:44;18.80;99.90
9943;DHT22;5010;45.080;7.634;2023-01-28T16:41:14;18.80;99.90
9943;DHT22;5010;45.080;7.634;2023-01-28T16:43:44;18.80;99.90
9943;DHT22;5010;45.080;7.634;2023-01-28T16:46:12;18.80;99.90
9943;DHT22;5010;45.080;7.634;2023-01-28T16:48:39;18.70;99.90
9943;DHT22;5010;45.080;7.634;2023-01-28T16:51:08;18.70;99.90
9943;DHT22;5010;45.080;7.634;2023-01-28T16:53:41;18.70;99.90
9943;DHT22;5010;45.080;7.634;2023-01-28T16:56:10;18.70;99.90
9943;DHT22;5010;45.080;7.634;2023-01-28T16:58:40;18.70;99.90
9943;DHT22;5010;45.080;7.634;2023-01-28T17:01:07;18.70;99.90
9943;DHT22;5010;45.080;7.634;2023-01-28T17:03:34;18.70;99.90
9943;DHT22;5010;45.080;7.634;2023-01-28T17:06:01;18.70;99.90
9943;DHT22;5010;45.080;7.634;2023-01-28T17:08:28;18.70;99.90
9943;DHT22;5010;45.080;7.634;2023-01-28T17:10:55;18.70;99.90
9943;DHT22;5010;45.080;7.634;2023-01-28T17:13:23;18.70;99.90
9943;DHT22;5010;45.080;7.634;2023-01-28T17:15:51;18.60;99.90
9943;DHT22;5010;45.080;7.634;2023-01-28T17:18:18;18.60;99.90
9943;DHT22;5010;45.080;7.634;2023-01-28T17:20:45;18.60;99.90
9943;DHT22;5010;45.080;7.634;2023-01-28T17:23:16;18.60;99.90
9943;DHT22;5010;45.080;7.634;2023-01-28T17:25:47;18.60;99.90
9943;DHT22;5010;45.080;7.634;2023-01-28T17:28:14;18.60;99.90
9943;DHT22;5010;45.080;7.634;2023-01-28T17:30:41;18.60;99.90
9943;DHT22;5010;45.080;7.634;2023-01-28T17:33:09;18.60;99.90
9943;DHT22;5010;45.080;7.634;2023-01-28T17:35:36;18.60;99.90
9943;DHT22;5010;45.080;7.634;2023-01-28T17:38:04;18.60;99.90
9943;DHT22;5010;45.080;7.634;2023-01-28T17:40:31;18.60;99.90
9943;DHT22;5010;45.080;7.634;2023-01-28T17:42:58;18.60;99.90
9943;DHT22;5010;45.080;7.634;2023-01-28T17:45:24;18.50;99.90
9943;DHT22;5010;45.080;7.634;2023-01-28T17:47:52;18.50;99.90
9943;DHT22;5010;45.080;7.634;2023-01-28T17:50:21;18.50;99.90
9943;DHT22;5010;45.080;7.634;2023-01-28T17:52:47;18.50;99.90
9943;DHT22;5010;45.080;7.634;2023-01-28T17:55:14;18.50;99.90
9943;DHT22;5010;45.080;7.634;2023-01-28T17:57:43;18.50;99.90
9943;DHT22;5010;45.080;7.634;2023-01-28T18:00:11;18.50;99.90
9943;DHT22;5010;45.080;7.634;2023-01-28T18:02:38;18.50;99.90
9943;DHT22;5010;45.080;7.634;2023-01-28T18:05:05;18.50;99.90
9943;DHT22;5010;45.080;7.634;2023-01-28T18:07:34;18.50;99.90
9943;DHT22;5010;45.080;7.634;2023-01-28T18:10:01;18.50;99.90
9943;DHT22;5010;45.080;7.634;2023-01-28T18:12:27;18.50;99.90
9943;DHT22;5010;45.080;7.634;2023-01-28T18:14:54;18.50;99.90
9943;DHT22;5010;45.080;7.634;2023-01-28T18:17:21;18.50;99.90
9943;DHT22;5010;45.080;7.634;2023-01-28T18:19:51;18.50;99.90
9943;DHT22;5010;45.080;7.634;2023-01-28T18:22:18;18.50;99.90
9943;DHT22;5010;45.080;7.634;2023-01-28T18:24:46;18.40;99.90
9943;DHT22;5010;45.080;7.634;2023-01-28T18:27:13;18.40;99.90
9943;DHT22;5010;45.080;7.634;2023-01-28T18:29:40;18.40;99.90
9943;DHT22;5010;45.080;7.634;2023-01-28T18:32:07;18.40;99.90
9943;DHT22;5010;45.080;7.634;2023-01-28T18:34:33;18.40;99.90
9943;DHT22;5010;45.080;7.634;2023-01-28T18:37:01;18.40;99.90
9943;DHT22;5010;45.080;7.634;2023-01-28T18:39:31;18.40;99.90
9943;DHT22;5010;45.080;7.634;2023-01-28T18:41:59;18.40;99.90
9943;DHT22;5010;45.080;7.634;2023-01-28T18:44:27;18.40;99.90
9943;DHT22;5010;45.080;7.634;2023-01-28T18:46:56;18.40;99.90
9943;DHT22;5010;45.080;7.634;2023-01-28T18:49:23;18.40;99.90
9943;DHT22;5010;45.080;7.634;2023-01-28T18:51:50;18.40;99.90
9943;DHT22;5010;45.080;7.634;2023-01-28T18:54:16;18.40;99.90
9943;DHT22;5010;45.080;7.634;2023-01-28T18:56:44;18.40;99.90
9943;DHT22;5010;45.080;7.634;2023-01-28T18:59:13;18.40;99.90
9943;DHT22;5010;45.080;7.634;2023-01-28T19:01:40;18.40;99.90
9943;DHT22;5010;45.080;7.634;2023-01-28T19:04:08;18.40;99.90
9943;DHT22;5010;45.080;7.634;2023-01-28T19:06:35;18.40;99.90
9943;DHT22;5010;45.080;7.634;2023-01-28T19:09:04;18.40;99.90
9943;DHT22;5010;45.080;7.634;2023-01-28T19:11:32;18.40;99.90
9943;DHT22;5010;45.080;7.634;2023-01-28T19:13:59;18.40;99.90
9943;DHT22;5010;45.080;7.634;2023-01-28T19:16:27;18.40;99.90
9943;DHT22;5010;45.080;7.634;2023-01-28T19:18:56;18.40;99.90
9943;DHT22;5010;45.080;7.634;2023-01-28T19:21:24;18.40;99.90
9943;DHT22;5010;45.080;7.634;2023-01-28T19:23:55;18.40;99.90
9943;DHT22;5010;45.080;7.634;2023-01-28T19:26:22;18.40;99.90
9943;DHT22;5010;45.080;7.634;2023-01-28T19:28:49;18.40;99.90
9943;DHT22;5010;45.080;7.634;2023-01-28T19:31:17;18.40;99.90
9943;DHT22;5010;45.080;7.634;2023-01-28T19:33:47;18.40;99.90
9943;DHT22;5010;45.080;7.634;2023-01-28T19:36:14;18.50;99.90
9943;DHT22;5010;45.080;7.634;2023-01-28T19:38:41;18.50;99.90
9943;DHT22;5010;45.080;7.634;2023-01-28T19:41:09;18.50;99.90
9943;DHT22;5010;45.080;7.634;2023-01-28T19:43:38;18.50;99.90
9943;DHT22;5010;45.080;7.634;2023-01-28T19:46:05;18.50;99.90
9943;DHT22;5010;45.080;7.634;2023-01-28T19:48:32;18.60;99.90
9943;DHT22;5010;45.080;7.634;2023-01-28T19:51:05;18.60;99.90
9943;DHT22;5010;45.080;7.634;2023-01-28T19:53:33;18.60;99.90
9943;DHT22;5010;45.080;7.634;2023-01-28T19:56:00;18.60;99.90
9943;DHT22;5010;45.080;7.634;2023-01-28T19:58:31;18.60;99.90
9943;DHT22;5010;45.080;7.634;2023-01-28T20:01:02;18.60;99.90
9943;DHT22;5010;45.080;7.634;2023-01-28T20:03:29;18.70;99.90
9943;DHT22;5010;45.080;7.634;2023-01-28T20:05:59;18.70;99.90
9943;DHT22;5010;45.080;7.634;2023-01-28T20:08:28;18.70;99.90
9943;DHT22;5010;45.080;7.634;2023-01-28T20:11:01;18.70;99.90
9943;DHT22;5010;45.080;7.634;2023-01-28T20:13:29;18.70;99.90
9943;DHT22;5010;45.080;7.634;2023-01-28T20:15:57;18.80;99.90
9943;DHT22;5010;45.080;7.634;2023-01-28T20:18:25;18.80;99.90
9943;DHT22;5010;45.080;7.634;2023-01-28T20:20:53;18.80;99.90
9943;DHT22;5010;45.080;7.634;2023-01-28T20:23:20;18.80;99.90
9943;DHT22;5010;45.080;7.634;2023-01-28T20:25:52;18.80;99.90
9943;DHT22;5010;45.080;7.634;2023-01-28T20:28:20;18.80;99.90
9943;DHT22;5010;45.080;7.634;2023-01-28T20:30:47;18.80;99.90
9943;DHT22;5010;45.080;7.634;2023-01-28T20:33:14;18.80;99.90
9943;DHT22;5010;45.080;7.634;2023-01-28T20:35:41;18.90;99.90
9943;DHT22;5010;45.080;7.634;2023-01-28T20:38:09;18.90;99.90
9943;DHT22;5010;45.080;7.634;2023-01-28T20:40:37;18.90;99.90
9943;DHT22;5010;45.080;7.634;2023-01-28T20:43:08;18.90;99.90
9943;DHT22;5010;45.080;7.634;2023-01-28T20:45:35;18.90;99.90
9943;DHT22;5010;45.080;7.634;2023-01-28T20:48:03;18.90;99.90
9943;DHT22;5010;45.080;7.634;2023-01-28T20:50:30;18.90;99.90
9943;DHT22;5010;45.080;7.634;2023-01-28T20:52:57;19.00;99.90
9943;DHT22;5010;45.080;7.634;2023-01-28T20:55:24;19.00;99.90
9943;DHT22;5010;45.080;7.634;2023-01-28T20:57:53;18.90;99.90
9943;DHT22;5010;45.080;7.634;2023-01-28T21:00:22;19.00;99.90
9943;DHT22;5010;45.080;7.634;2023-01-28T21:02:49;19.00;99.90
9943;DHT22;5010;45.080;7.634;2023-01-28T21:05:16;19.00;99.90
9943;DHT22;5010;45.080;7.634;2023-01-28T21:07:43;19.00;99.90
9943;DHT22;5010;45.080;7.634;2023-01-28T21:10:11;19.00;99.90
9943;DHT22;5010;45.080;7.634;2023-01-28T21:12:38;19.10;99.90
9943;DHT22;5010;45.080;7.634;2023-01-28T21:15:06;19.10;99.90
9943;DHT22;5010;45.080;7.634;2023-01-28T21:17:35;19.10;99.90
9943;DHT22;5010;45.080;7.634;2023-01-28T21:20:02;19.10;99.90
9943;DHT22;5010;45.080;7.634;2023-01-28T21:22:29;19.20;99.90
9943;DHT22;5010;45.080;7.634;2023-01-28T21:24:56;19.20;99.90
9943;DHT22;5010;45.080;7.634;2023-01-28T21:27:23;19.20;99.90
9943;DHT22;5010;45.080;7.634;2023-01-28T21:29:49;19.30;1.00
9943;DHT22;5010;45.080;7.634;2023-01-28T21:32:16;19.30;1.00
9943;DHT22;5010;45.080;7.634;2023-01-28T21:34:46;19.30;1.00
9943;DHT22;5010;45.080;7.634;2023-01-28T21:37:13;19.40;1.00
9943;DHT22;5010;45.080;7.634;2023-01-28T21:39:40;19.40;99.90
9943;DHT22;5010;45.080;7.634;2023-01-28T21:42:07;19.50;99.90
9943;DHT22;5010;45.080;7.634;2023-01-28T21:44:34;19.50;1.00
9943;DHT22;5010;45.080;7.634;2023-01-28T21:47:01;19.50;26.30
9943;DHT22;5010;45.080;7.634;2023-01-28T21:49:27;19.60;99.90
9943;DHT22;5010;45.080;7.634;2023-01-28T21:51:56;19.60;1.00
9943;DHT22;5010;45.080;7.634;2023-01-28T21:54:22;19.60;7.40
9943;DHT22;5010;45.080;7.634;2023-01-28T21:56:50;19.60;68.20
9943;DHT22;5010;45.080;7.634;2023-01-28T21:59:18;19.60;99.90
9943;DHT22;5010;45.080;7.634;2023-01-28T22:01:53;19.60;99.90
9943;DHT22;5010;45.080;7.634;2023-01-28T22:04:21;19.60;34.00
9943;DHT22;5010;45.080;7.634;2023-01-28T22:06:48;19.60;2.10
9943;DHT22;5010;45.080;7.634;2023-01-28T22:09:16;19.60;32.50
9943;DHT22;5010;45.080;7.634;2023-01-28T22:11:44;19.60;99.90
9943;DHT22;5010;45.080;7.634;2023-01-28T22:14:11;19.60;99.90
9943;DHT22;5010;45.080;7.634;2023-01-28T22:16:38;19.60;94.50
9943;DHT22;5010;45.080;7.634;2023-01-28T22:19:05;19.60;1.00
9943;DHT22;5010;45.080;7.634;2023-01-28T22:21:32;19.60;1.00
9943;DHT22;5010;45.080;7.634;2023-01-28T22:24:07;19.70;99.90
9943;DHT22;5010;45.080;7.634;2023-01-28T22:26:36;19.60;99.90
9943;DHT22;5010;45.080;7.634;2023-01-28T22:29:05;19.70;1.00
9943;DHT22;5010;45.080;7.634;2023-01-28T22:31:32;19.60;1.00
9943;DHT22;5010;45.080;7.634;2023-01-28T22:33:59;19.70;1.00
9943;DHT22;5010;45.080;7.634;2023-01-28T22:36:27;19.60;99.90
9943;DHT22;5010;45.080;7.634;2023-01-28T22:38:54;19.70;99.90
9943;DHT22;5010;45.080;7.634;2023-01-28T22:41:21;19.70;99.90
9943;DHT22;5010;45.080;7.634;2023-01-28T22:43:50;19.70;72.50
9943;DHT22;5010;45.080;7.634;2023-01-28T22:46:19;19.70;1.00
9943;DHT22;5010;45.080;7.634;2023-01-28T22:48:47;19.70;1.00
9943;DHT22;5010;45.080;7.634;2023-01-28T22:51:17;19.70;1.00
9943;DHT22;5010;45.080;7.634;2023-01-28T22:53:45;19.70;1.00
9943;DHT22;5010;45.080;7.634;2023-01-28T22:56:13;19.70;1.00
9943;DHT22;5010;45.080;7.634;2023-01-28T22:58:40;19.70;99.90
9943;DHT22;5010;45.080;7.634;2023-01-28T23:01:09;19.70;99.90
9943;DHT22;5010;45.080;7.634;2023-01-28T23:03:35;19.70;99.90
9943;DHT22;5010;45.080;7.634;2023-01-28T23:06:04;19.70;99.90
9943;DHT22;5010;45.080;7.634;2023-01-28T23:08:32;19.70;99.90
9943;DHT22;5010;45.080;7.634;2023-01-28T23:11:01;19.70;34.60
9943;DHT22;5010;45.080;7.634;2023-01-28T23:13:29;19.70;1.00
9943;DHT22;5010;45.080;7.634;2023-01-28T23:16:18;19.70;1.00
9943;DHT22;5010;45.080;7.634;2023-01-28T23:19:02;19.70;1.00
9943;DHT22;5010;45.080;7.634;2023-01-28T23:21:47;19.70;1.00
9943;DHT22;5010;45.080;7.634;2023-01-28T23:24:32;19.70;1.00
9943;DHT22;5010;45.080;7.634;2023-01-28T23:26:59;19.70;99.90
9943;DHT22;5010;45.080;7.634;2023-01-28T23:29:28;19.60;99.90
9943;DHT22;5010;45.080;7.634;2023-01-28T23:31:58;19.70;99.90
9943;DHT22;5010;45.080;7.634;2023-01-28T23:34:27;19.70;99.90
9943;DHT22;5010;45.080;7.634;2023-01-28T23:36:55;19.70;1.00
9943;DHT22;5010;45.080;7.634;2023-01-28T23:39:22;19.70;1.00
9943;DHT22;5010;45.080;7.634;2023-01-28T23:41:49;19.70;1.00
9943;DHT22;5010;45.080;7.634;2023-01-28T23:44:15;19.70;1.00
9943;DHT22;5010;45.080;7.634;2023-01-28T23:46:42;19.70;1.00
9943;DHT22;5010;45.080;7.634;2023-01-28T23:49:11;19.70;1.00
9943;DHT22;5010;45.080;7.634;2023-01-28T23:51:37;19.70;1.00
9943;DHT22;5010;45.080;7.634;2023-01-28T23:54:04;19.70;1.00
9943;DHT22;5010;45.080;7.634;2023-01-28T23:56:32;19.70;1.00
9943;DHT22;5010;45.080;7.634;2023-01-28T23:58:59;19.70;1.00
